Time;durP1;ratioP1;P1;durP2;ratioP2;P2;SDS_P1;SDS_P2;PMS_P1;PMS_P2;Temp;Humidity;BMP_temperature;BMP_pressure;BME280_temperature;BME280_humidity;BME280_pressure;Samples;Min_cycle;Max_cycle;Signal;HPM_P1;HPM_P2
2023/06/18 00:01:31;;;;;;;;;;;24.30;48.60;;;;;;5093561;28;19924;-63
2023/06/18 00:03:57;;;;;;;;;;;24.30;48.60;;;;;;5091492;28;19974;-63
2023/06/18 00:06:23;;;;;;;;;;;24.30;48.60;;;;;;5092361;28;19926;-62
2023/06/18 00:08:49;;;;;;;;;;;24.30;49.30;;;;;;5092009;28;19924;-62
2023/06/18 00:11:14;;;;;;;;;;;24.30;48.60;;;;;;5092478;28;19930;-62
2023/06/18 00:13:40;;;;;;;;;;;24.30;48.60;;;;;;5093387;28;20428;-62
2023/06/18 00:16:05;;;;;;;;;;;24.30;48.50;;;;;;5093405;28;19996;-62
2023/06/18 00:18:31;;;;;;;;;;;24.30;48.60;;;;;;5092004;28;20531;-63
2023/06/18 00:20:59;;;;;;;;;;;24.30;48.60;;;;;;5092111;28;20565;-62
2023/06/18 00:23:24;;;;;;;;;;;24.30;48.50;;;;;;5091899;28;19955;-62
2023/06/18 00:25:50;;;;;;;;;;;24.20;48.50;;;;;;5091975;28;19982;-62
2023/06/18 00:28:15;;;;;;;;;;;24.20;48.50;;;;;;5093084;28;19920;-63
2023/06/18 00:30:41;;;;;;;;;;;24.20;48.50;;;;;;5091014;28;19931;-63
2023/06/18 00:33:06;;;;;;;;;;;24.20;48.50;;;;;;5092041;28;19924;-62
2023/06/18 00:35:32;;;;;;;;;;;24.20;48.60;;;;;;5091658;28;19920;-62
2023/06/18 00:37:59;;;;;;;;;;;24.20;48.60;;;;;;5093031;28;19966;-62
2023/06/18 00:40:24;;;;;;;;;;;24.10;48.60;;;;;;5091986;28;19997;-62
2023/06/18 00:42:52;;;;;;;;;;;24.20;48.60;;;;;;5092002;28;19970;-63
2023/06/18 00:45:18;;;;;;;;;;;24.10;48.50;;;;;;5091564;28;20387;-69
2023/06/18 00:47:44;;;;;;;;;;;24.10;48.50;;;;;;5092748;28;20012;-63
2023/06/18 00:50:14;;;;;;;;;;;24.10;48.60;;;;;;5092859;28;19927;-62
2023/06/18 00:52:44;;;;;;;;;;;24.10;48.60;;;;;;5092976;28;20335;-63
2023/06/18 00:55:10;;;;;;;;;;;24.10;48.60;;;;;;5091728;28;19926;-63
2023/06/18 00:57:37;;;;;;;;;;;24.10;48.60;;;;;;5091793;28;19920;-63
2023/06/18 01:00:09;;;;;;;;;;;24.10;48.60;;;;;;5091017;28;19934;-63
2023/06/18 01:02:34;;;;;;;;;;;24.10;49.40;;;;;;5091821;28;19920;-63
2023/06/18 01:05:00;;;;;;;;;;;24.10;48.60;;;;;;5091321;28;20280;-62
2023/06/18 01:07:26;;;;;;;;;;;24.10;48.60;;;;;;5091638;28;19924;-62
2023/06/18 01:09:53;;;;;;;;;;;24.10;48.60;;;;;;5090929;28;19934;-62
2023/06/18 01:12:21;;;;;;;;;;;24.00;48.60;;;;;;5091889;28;21265;-62
2023/06/18 01:14:50;;;;;;;;;;;24.00;48.50;;;;;;5091525;28;19920;-62
2023/06/18 01:17:17;;;;;;;;;;;24.00;48.50;;;;;;5091653;28;19920;-62
2023/06/18 01:25:06;;;;;;;;;;;23.90;48.50;;;;;;5110742;27;19912;-61
2023/06/18 01:27:33;;;;;;;;;;;24.00;48.60;;;;;;5108728;28;19934;-62
2023/06/18 01:30:00;;;;;;;;;;;23.90;48.50;;;;;;5109292;28;19973;-61
2023/06/18 01:32:26;;;;;;;;;;;23.90;48.40;;;;;;5109127;28;19942;-62
2023/06/18 01:34:57;;;;;;;;;;;23.90;48.50;;;;;;5109188;28;19920;-62
2023/06/18 01:40:09;;;;;;;;;;;23.90;48.50;;;;;;5110366;27;20366;-62
2023/06/18 01:42:36;;;;;;;;;;;24.00;48.60;;;;;;5110230;28;20268;-62
2023/06/18 01:45:07;;;;;;;;;;;23.90;48.50;;;;;;5109269;28;19962;-62
2023/06/18 01:47:33;;;;;;;;;;;23.90;48.60;;;;;;5108823;28;19974;-62
2023/06/18 01:50:00;;;;;;;;;;;23.90;48.60;;;;;;5109161;28;19967;-62
2023/06/18 01:52:27;;;;;;;;;;;23.90;48.60;;;;;;5108741;28;19924;-62
2023/06/18 01:54:53;;;;;;;;;;;23.90;48.60;;;;;;5109034;28;19974;-62
2023/06/18 01:57:19;;;;;;;;;;;23.80;48.50;;;;;;5108945;28;19924;-62
2023/06/18 01:59:44;;;;;;;;;;;23.90;48.70;;;;;;5108622;28;20290;-62
2023/06/18 02:02:12;;;;;;;;;;;23.80;48.60;;;;;;5108825;28;19920;-62
2023/06/18 02:04:37;;;;;;;;;;;23.70;48.60;;;;;;5109317;28;19924;-62
2023/06/18 02:07:03;;;;;;;;;;;23.80;48.70;;;;;;5108396;28;19946;-61
2023/06/18 02:09:29;;;;;;;;;;;23.80;48.60;;;;;;5109764;28;19967;-68
2023/06/18 02:11:55;;;;;;;;;;;23.80;48.70;;;;;;5109538;28;19920;-62
2023/06/18 02:14:21;;;;;;;;;;;23.70;48.60;;;;;;5109857;28;19924;-62
2023/06/18 02:16:48;;;;;;;;;;;23.80;48.60;;;;;;5108628;28;19920;-62
2023/06/18 02:19:14;;;;;;;;;;;23.80;48.70;;;;;;5108239;28;19924;-62
2023/06/18 02:21:40;;;;;;;;;;;23.70;48.60;;;;;;5109646;28;19973;-62
2023/06/18 02:24:05;;;;;;;;;;;23.70;48.60;;;;;;5108387;28;19928;-62
2023/06/18 02:26:31;;;;;;;;;;;23.70;48.70;;;;;;5108012;28;20272;-62
2023/06/18 02:28:56;;;;;;;;;;;23.70;48.70;;;;;;5107957;28;19920;-62
2023/06/18 02:31:22;;;;;;;;;;;23.70;48.70;;;;;;5109324;28;19920;-62
2023/06/18 02:33:47;;;;;;;;;;;23.70;48.60;;;;;;5108236;28;19981;-62
2023/06/18 02:36:13;;;;;;;;;;;23.60;48.70;;;;;;5109242;28;20394;-62
2023/06/18 02:38:39;;;;;;;;;;;23.70;48.70;;;;;;5117617;28;19924;-62
2023/06/18 02:41:05;;;;;;;;;;;23.70;49.40;;;;;;5111465;28;19920;-62
2023/06/18 02:43:31;;;;;;;;;;;23.60;48.60;;;;;;5111120;28;19955;-62
2023/06/18 02:45:56;;;;;;;;;;;23.60;48.60;;;;;;5129531;28;19924;-62
2023/06/18 02:48:22;;;;;;;;;;;23.60;48.70;;;;;;5129512;28;20018;-62
2023/06/18 02:50:47;;;;;;;;;;;23.60;48.70;;;;;;5101070;28;19920;-62
2023/06/18 02:53:13;;;;;;;;;;;23.60;48.80;;;;;;5097789;28;20014;-62
2023/06/18 02:55:41;;;;;;;;;;;23.60;48.80;;;;;;5131526;27;20397;-62
2023/06/18 02:58:15;;;;;;;;;;;23.50;48.70;;;;;;5115488;28;20378;-63
2023/06/18 03:00:41;;;;;;;;;;;23.60;48.80;;;;;;5097468;28;20006;-62
2023/06/18 03:03:06;;;;;;;;;;;23.60;48.80;;;;;;5115674;28;20011;-62
2023/06/18 03:05:32;;;;;;;;;;;23.50;48.70;;;;;;5097601;28;20387;-62
2023/06/18 03:07:57;;;;;;;;;;;23.50;48.70;;;;;;5096754;28;19920;-62
2023/06/18 03:10:22;;;;;;;;;;;23.50;48.70;;;;;;5097185;28;19920;-62
2023/06/18 03:12:48;;;;;;;;;;;23.50;48.80;;;;;;5097262;28;20390;-61
2023/06/18 03:15:14;;;;;;;;;;;23.50;48.70;;;;;;5096117;28;19927;-62
2023/06/18 03:17:39;;;;;;;;;;;23.50;48.70;;;;;;5097095;28;19955;-61
2023/06/18 03:20:07;;;;;;;;;;;23.50;48.70;;;;;;5115201;28;19920;-62
2023/06/18 03:22:32;;;;;;;;;;;23.50;48.70;;;;;;5097245;28;20393;-61
2023/06/18 03:25:00;;;;;;;;;;;23.40;48.60;;;;;;5097075;28;19958;-62
2023/06/18 03:27:25;;;;;;;;;;;23.50;48.70;;;;;;5096682;28;19927;-61
2023/06/18 03:29:51;;;;;;;;;;;23.40;48.50;;;;;;5114946;28;19920;-62
2023/06/18 03:32:18;;;;;;;;;;;23.50;48.70;;;;;;5096996;28;20320;-62
2023/06/18 03:34:48;;;;;;;;;;;23.40;48.60;;;;;;5096558;28;19923;-62
2023/06/18 03:37:14;;;;;;;;;;;23.40;48.60;;;;;;5096890;28;19920;-62
2023/06/18 03:39:40;;;;;;;;;;;23.40;48.60;;;;;;5096275;28;19931;-61
2023/06/18 03:42:06;;;;;;;;;;;23.40;48.70;;;;;;5114647;28;20371;-62
2023/06/18 03:44:31;;;;;;;;;;;23.40;48.70;;;;;;5096786;28;19920;-62
2023/06/18 03:46:57;;;;;;;;;;;23.40;48.70;;;;;;5096666;28;19934;-62
2023/06/18 03:49:22;;;;;;;;;;;23.40;48.70;;;;;;5114808;28;19919;-62
2023/06/18 03:51:48;;;;;;;;;;;23.40;48.70;;;;;;5130600;27;19950;-62
2023/06/18 03:54:13;;;;;;;;;;;23.40;48.70;;;;;;5096329;28;19926;-62
2023/06/18 03:56:38;;;;;;;;;;;23.40;48.80;;;;;;5114450;28;19927;-62
2023/06/18 03:59:04;;;;;;;;;;;23.30;48.70;;;;;;5096125;28;19923;-62
2023/06/18 04:01:29;;;;;;;;;;;23.40;48.80;;;;;;5095333;28;20282;-62
2023/06/18 04:03:55;;;;;;;;;;;23.30;48.80;;;;;;5114516;28;20021;-62
2023/06/18 04:06:20;;;;;;;;;;;23.30;48.70;;;;;;5114350;28;19927;-62
2023/06/18 04:08:46;;;;;;;;;;;23.30;48.80;;;;;;5095970;28;19930;-62
2023/06/18 04:11:11;;;;;;;;;;;23.30;48.80;;;;;;5130380;27;19919;-62
2023/06/18 04:13:37;;;;;;;;;;;23.30;48.70;;;;;;5114114;28;20310;-62
2023/06/18 04:16:02;;;;;;;;;;;23.30;48.80;;;;;;5096060;28;19926;-62
2023/06/18 04:18:29;;;;;;;;;;;23.30;48.70;;;;;;5095717;28;19930;-62
2023/06/18 04:20:55;;;;;;;;;;;23.30;48.70;;;;;;5096044;28;19919;-61
2023/06/18 04:23:20;;;;;;;;;;;23.30;48.80;;;;;;5129756;27;19919;-62
2023/06/18 04:25:46;;;;;;;;;;;23.30;48.80;;;;;;5095633;28;19966;-62
2023/06/18 04:28:11;;;;;;;;;;;23.30;48.80;;;;;;5095339;28;19974;-62
2023/06/18 04:30:36;;;;;;;;;;;23.30;48.90;;;;;;5094891;28;19919;-62
2023/06/18 04:33:02;;;;;;;;;;;23.30;48.90;;;;;;5095735;28;19923;-62
2023/06/18 04:35:27;;;;;;;;;;;23.30;49.00;;;;;;5095504;28;19920;-62
2023/06/18 04:37:53;;;;;;;;;;;23.30;49.00;;;;;;5095344;28;20337;-62
2023/06/18 04:40:18;;;;;;;;;;;23.30;49.00;;;;;;5095670;28;19971;-62
2023/06/18 04:42:45;;;;;;;;;;;23.30;49.10;;;;;;5095521;28;20447;-62
2023/06/18 04:45:11;;;;;;;;;;;23.30;49.10;;;;;;5095237;28;19927;-62
2023/06/18 04:47:37;;;;;;;;;;;23.20;49.10;;;;;;5095497;28;19920;-62
2023/06/18 04:50:03;;;;;;;;;;;23.30;49.10;;;;;;5095239;28;19988;-62
2023/06/18 04:52:29;;;;;;;;;;;23.20;49.10;;;;;;5095429;28;20411;-62
2023/06/18 04:54:55;;;;;;;;;;;23.20;49.10;;;;;;5095184;28;20003;-62
2023/06/18 04:57:20;;;;;;;;;;;23.30;49.20;;;;;;5113352;28;20014;-62
2023/06/18 04:59:46;;;;;;;;;;;23.20;49.10;;;;;;5113131;28;20016;-62
2023/06/18 05:02:12;;;;;;;;;;;23.20;49.20;;;;;;5113291;28;19931;-62
2023/06/18 05:04:37;;;;;;;;;;;23.20;49.30;;;;;;5113329;28;20333;-62
2023/06/18 05:07:03;;;;;;;;;;;23.30;49.30;;;;;;5078072;28;20014;-62
2023/06/18 05:09:29;;;;;;;;;;;23.20;49.30;;;;;;5113097;28;19920;-62
2023/06/18 05:11:54;;;;;;;;;;;23.20;49.20;;;;;;5094903;28;19966;-61
2023/06/18 05:14:20;;;;;;;;;;;23.20;49.30;;;;;;5094720;28;19920;-61
2023/06/18 05:16:45;;;;;;;;;;;23.20;49.30;;;;;;5113424;28;20015;-62
2023/06/18 05:19:11;;;;;;;;;;;23.20;49.30;;;;;;5094746;28;19919;-62
2023/06/18 05:21:36;;;;;;;;;;;23.20;49.40;;;;;;5113185;28;20022;-62
2023/06/18 05:24:02;;;;;;;;;;;23.20;49.40;;;;;;5094604;28;19945;-62
2023/06/18 05:26:28;;;;;;;;;;;23.20;49.40;;;;;;5113010;28;19927;-62
2023/06/18 05:28:54;;;;;;;;;;;23.20;49.40;;;;;;5094525;28;19926;-62
2023/06/18 05:31:19;;;;;;;;;;;23.20;49.40;;;;;;5112797;28;20294;-62
2023/06/18 05:33:48;;;;;;;;;;;23.20;49.30;;;;;;5112948;28;20389;-61
2023/06/18 05:36:13;;;;;;;;;;;23.20;49.40;;;;;;5094528;28;19920;-62
2023/06/18 05:38:39;;;;;;;;;;;23.20;49.60;;;;;;5094122;28;20336;-62
2023/06/18 05:41:04;;;;;;;;;;;23.20;49.60;;;;;;5112712;28;19919;-62
2023/06/18 05:43:30;;;;;;;;;;;23.20;49.60;;;;;;5093446;28;19981;-62
2023/06/18 05:45:55;;;;;;;;;;;23.20;49.60;;;;;;5112461;28;20065;-62
2023/06/18 05:48:21;;;;;;;;;;;23.20;49.50;;;;;;5112970;28;19920;-62
2023/06/18 05:50:46;;;;;;;;;;;23.20;49.70;;;;;;5094476;28;19924;-62
2023/06/18 05:53:12;;;;;;;;;;;23.20;49.70;;;;;;5112676;28;19980;-62
2023/06/18 05:55:37;;;;;;;;;;;23.20;49.70;;;;;;5094359;28;19927;-62
2023/06/18 05:58:03;;;;;;;;;;;23.20;49.70;;;;;;5094593;28;19924;-62
2023/06/18 06:00:28;;;;;;;;;;;23.20;49.90;;;;;;5094249;28;19920;-63
2023/06/18 06:02:54;;;;;;;;;;;23.20;49.70;;;;;;5094262;28;19969;-62
2023/06/18 06:05:20;;;;;;;;;;;23.20;49.90;;;;;;5094190;28;19920;-62
2023/06/18 06:07:46;;;;;;;;;;;23.20;49.80;;;;;;5094616;28;20429;-62
2023/06/18 06:10:12;;;;;;;;;;;23.20;50.10;;;;;;5112614;28;19924;-62
2023/06/18 06:12:37;;;;;;;;;;;23.20;50.00;;;;;;5094173;28;20374;-62
2023/06/18 06:15:04;;;;;;;;;;;23.20;50.10;;;;;;5094417;28;20015;-62
2023/06/18 06:17:30;;;;;;;;;;;23.20;49.90;;;;;;5094207;28;19926;-62
2023/06/18 06:19:55;;;;;;;;;;;23.20;50.00;;;;;;5112390;28;19924;-63
2023/06/18 06:22:21;;;;;;;;;;;23.20;50.10;;;;;;5112699;28;19927;-62
2023/06/18 06:24:46;;;;;;;;;;;23.20;49.80;;;;;;5094539;28;19930;-62
2023/06/18 06:27:12;;;;;;;;;;;23.20;49.90;;;;;;5098120;28;19919;-63
2023/06/18 06:29:37;;;;;;;;;;;23.20;50.20;;;;;;5111535;28;20318;-62
2023/06/18 06:32:03;;;;;;;;;;;23.30;50.20;;;;;;5095599;28;19924;-62
2023/06/18 06:34:29;;;;;;;;;;;23.30;50.30;;;;;;5111475;28;19924;-62
2023/06/18 06:36:54;;;;;;;;;;;23.30;50.10;;;;;;5077395;28;19927;-62
2023/06/18 06:39:20;;;;;;;;;;;23.20;50.00;;;;;;5095286;28;19971;-62
2023/06/18 06:41:45;;;;;;;;;;;23.30;50.10;;;;;;5077303;28;19924;-62
2023/06/18 06:44:11;;;;;;;;;;;23.30;50.20;;;;;;5077393;28;19920;-62
2023/06/18 06:46:36;;;;;;;;;;;23.20;50.30;;;;;;5077582;28;19924;-62
2023/06/18 06:49:06;;;;;;;;;;;23.30;50.00;;;;;;5077316;28;20363;-62
2023/06/18 06:51:33;;;;;;;;;;;23.30;50.20;;;;;;5077140;28;20367;-62
2023/06/18 06:53:59;;;;;;;;;;;23.30;50.40;;;;;;5095551;28;20297;-62
2023/06/18 06:56:25;;;;;;;;;;;23.30;51.20;;;;;;5077108;28;20014;-62
2023/06/18 06:58:51;;;;;;;;;;;23.30;50.50;;;;;;5077258;28;19924;-62
2023/06/18 07:01:19;;;;;;;;;;;23.30;50.50;;;;;;5077541;28;19927;-62
2023/06/18 07:03:45;;;;;;;;;;;23.30;50.40;;;;;;5076908;28;19973;-62
2023/06/18 07:06:11;;;;;;;;;;;23.30;50.50;;;;;;5095378;28;20328;-62
2023/06/18 07:08:36;;;;;;;;;;;23.30;50.30;;;;;;5111067;28;19924;-62
2023/06/18 07:11:02;;;;;;;;;;;23.30;50.50;;;;;;5095009;28;19920;-62
2023/06/18 07:13:27;;;;;;;;;;;23.30;50.40;;;;;;5080166;28;20018;-62
2023/06/18 07:15:53;;;;;;;;;;;23.30;50.50;;;;;;5115117;28;20390;-62
2023/06/18 07:18:18;;;;;;;;;;;23.30;50.60;;;;;;5096788;28;19981;-62
2023/06/18 07:20:44;;;;;;;;;;;23.30;50.60;;;;;;5097264;28;19919;-62
2023/06/18 07:23:10;;;;;;;;;;;23.30;50.50;;;;;;5097146;28;20006;-62
2023/06/18 07:25:35;;;;;;;;;;;23.30;50.80;;;;;;5096920;28;20374;-62
2023/06/18 07:28:01;;;;;;;;;;;23.30;50.60;;;;;;5096882;28;20244;-62
2023/06/18 07:30:26;;;;;;;;;;;23.30;50.80;;;;;;5130931;27;19927;-63
2023/06/18 07:32:51;;;;;;;;;;;23.30;50.70;;;;;;5130922;27;19920;-62
2023/06/18 07:35:17;;;;;;;;;;;23.30;50.90;;;;;;5096883;28;19920;-62
2023/06/18 07:37:42;;;;;;;;;;;23.30;50.80;;;;;;5095823;28;20006;-62
2023/06/18 07:40:08;;;;;;;;;;;23.30;50.90;;;;;;5114383;28;19930;-63
2023/06/18 07:42:34;;;;;;;;;;;23.40;50.70;;;;;;5114849;28;19946;-62
2023/06/18 07:45:00;;;;;;;;;;;23.30;50.60;;;;;;5130570;27;19920;-62
2023/06/18 07:47:25;;;;;;;;;;;23.40;50.80;;;;;;5096730;28;19980;-62
2023/06/18 07:49:51;;;;;;;;;;;23.30;50.70;;;;;;5096596;28;19919;-62
2023/06/18 07:52:16;;;;;;;;;;;23.40;50.90;;;;;;5130465;27;19920;-62
2023/06/18 07:54:42;;;;;;;;;;;23.40;51.10;;;;;;5096534;28;19927;-62
2023/06/18 07:57:07;;;;;;;;;;;23.40;50.90;;;;;;5114529;28;19920;-63
2023/06/18 07:59:33;;;;;;;;;;;23.40;51.50;;;;;;5114195;28;19923;-63
2023/06/18 08:01:58;;;;;;;;;;;23.40;51.10;;;;;;5096222;28;19920;-62
2023/06/18 08:04:24;;;;;;;;;;;23.40;51.00;;;;;;5095443;28;19927;-62
2023/06/18 08:06:50;;;;;;;;;;;23.40;51.20;;;;;;5113832;28;19924;-62
2023/06/18 08:09:16;;;;;;;;;;;23.40;51.00;;;;;;5095893;28;20024;-62
2023/06/18 08:11:42;;;;;;;;;;;23.40;51.40;;;;;;5095967;28;19920;-62
2023/06/18 08:14:08;;;;;;;;;;;23.40;51.40;;;;;;5114093;28;20282;-62
2023/06/18 08:16:34;;;;;;;;;;;23.40;51.40;;;;;;5095022;28;19920;-62
2023/06/18 08:18:59;;;;;;;;;;;23.40;51.00;;;;;;5095509;28;19931;-62
2023/06/18 08:21:25;;;;;;;;;;;23.40;51.10;;;;;;5095706;28;19927;-62
2023/06/18 08:23:50;;;;;;;;;;;23.40;50.70;;;;;;5095996;28;19927;-62
2023/06/18 08:26:16;;;;;;;;;;;23.40;50.80;;;;;;5113582;28;19923;-62
2023/06/18 08:28:42;;;;;;;;;;;23.40;51.00;;;;;;5095876;28;19967;-62
2023/06/18 08:31:07;;;;;;;;;;;23.40;51.00;;;;;;5095177;28;19988;-61
2023/06/18 08:33:32;;;;;;;;;;;23.50;51.00;;;;;;5113847;28;19919;-62
2023/06/18 08:35:59;;;;;;;;;;;23.50;51.10;;;;;;5094885;28;20328;-62
2023/06/18 08:38:24;;;;;;;;;;;23.50;51.00;;;;;;5113548;28;20333;-62
2023/06/18 08:40:54;;;;;;;;;;;23.50;50.90;;;;;;5095699;28;19930;-62
2023/06/18 08:43:26;;;;;;;;;;;23.50;50.70;;;;;;5095736;28;19928;-62
2023/06/18 08:45:52;;;;;;;;;;;23.50;51.00;;;;;;5095521;28;19926;-68
2023/06/18 08:48:25;;;;;;;;;;;23.50;51.00;;;;;;5113057;28;19926;-62
2023/06/18 08:50:53;;;;;;;;;;;23.50;51.00;;;;;;5095450;28;19967;-62
2023/06/18 08:53:25;;;;;;;;;;;23.50;51.00;;;;;;5113484;28;19934;-62
2023/06/18 08:55:51;;;;;;;;;;;23.50;51.10;;;;;;5113338;28;19920;-62
2023/06/18 08:58:20;;;;;;;;;;;23.50;51.10;;;;;;5095251;28;19931;-62
2023/06/18 09:00:48;;;;;;;;;;;23.50;51.10;;;;;;5095345;28;19919;-62
2023/06/18 09:03:14;;;;;;;;;;;23.50;51.20;;;;;;5095323;28;19926;-62
2023/06/18 09:05:40;;;;;;;;;;;23.60;51.20;;;;;;5094907;28;19920;-62
2023/06/18 09:08:05;;;;;;;;;;;23.60;51.20;;;;;;5113165;28;19943;-62
2023/06/18 09:10:31;;;;;;;;;;;23.60;51.20;;;;;;5094942;28;19920;-62
2023/06/18 09:12:58;;;;;;;;;;;23.60;51.20;;;;;;5094838;28;19970;-62
2023/06/18 09:15:24;;;;;;;;;;;23.60;51.20;;;;;;5095214;28;19920;-62
2023/06/18 09:17:50;;;;;;;;;;;23.60;51.20;;;;;;5094997;28;19924;-62
2023/06/18 09:20:18;;;;;;;;;;;23.60;51.10;;;;;;5095034;28;19923;-62
2023/06/18 09:22:45;;;;;;;;;;;23.60;51.10;;;;;;5094746;28;19920;-61
2023/06/18 09:25:10;;;;;;;;;;;23.60;51.00;;;;;;5113114;28;19943;-62
2023/06/18 09:27:38;;;;;;;;;;;23.70;51.00;;;;;;5094538;28;19924;-62
2023/06/18 09:30:05;;;;;;;;;;;23.70;51.00;;;;;;5094677;28;19920;-62
2023/06/18 09:32:31;;;;;;;;;;;23.70;51.00;;;;;;5112768;28;19927;-62
2023/06/18 09:34:56;;;;;;;;;;;23.70;50.90;;;;;;5112776;28;19924;-62
2023/06/18 09:37:22;;;;;;;;;;;23.70;50.90;;;;;;5128898;27;20455;-62
2023/06/18 09:39:47;;;;;;;;;;;23.70;50.80;;;;;;5094451;28;19923;-62
2023/06/18 09:42:13;;;;;;;;;;;23.70;50.80;;;;;;5112663;28;20009;-62
2023/06/18 09:44:43;;;;;;;;;;;23.70;50.80;;;;;;5094546;28;19959;-62
2023/06/18 09:47:12;;;;;;;;;;;23.70;50.80;;;;;;5128523;28;19923;-62
2023/06/18 09:49:38;;;;;;;;;;;23.70;50.80;;;;;;5111916;28;19970;-62
2023/06/18 09:52:05;;;;;;;;;;;23.70;50.60;;;;;;5094444;28;20251;-62
2023/06/18 09:54:41;;;;;;;;;;;23.70;50.70;;;;;;5094414;28;20383;-63
2023/06/18 09:57:07;;;;;;;;;;;23.70;50.80;;;;;;5094573;28;19919;-62
2023/06/18 09:59:33;;;;;;;;;;;23.70;50.80;;;;;;5094350;28;19923;-62
2023/06/18 10:01:58;;;;;;;;;;;23.70;50.80;;;;;;5098538;28;19943;-62
2023/06/18 10:04:25;;;;;;;;;;;23.70;50.80;;;;;;5098577;28;20282;-62
2023/06/18 10:06:53;;;;;;;;;;;23.70;50.80;;;;;;5098687;28;19919;-62
2023/06/18 10:09:19;;;;;;;;;;;23.70;50.70;;;;;;5098552;28;19919;-62
2023/06/18 10:11:45;;;;;;;;;;;23.80;50.80;;;;;;5098243;28;19919;-62
2023/06/18 10:14:11;;;;;;;;;;;23.70;50.70;;;;;;5098463;28;19926;-62
2023/06/18 10:16:40;;;;;;;;;;;23.80;50.80;;;;;;5098126;28;19920;-63
2023/06/18 10:19:11;;;;;;;;;;;23.80;50.80;;;;;;5098105;28;20049;-62
2023/06/18 10:21:38;;;;;;;;;;;23.80;50.80;;;;;;5116422;28;19977;-62
2023/06/18 10:24:08;;;;;;;;;;;23.80;50.80;;;;;;5116373;28;19919;-62
2023/06/18 10:26:36;;;;;;;;;;;23.80;50.80;;;;;;5097981;28;20382;-62
2023/06/18 10:29:02;;;;;;;;;;;23.80;50.70;;;;;;5097913;28;20006;-62
2023/06/18 10:31:28;;;;;;;;;;;23.80;50.70;;;;;;5116251;28;20342;-63
2023/06/18 10:33:54;;;;;;;;;;;23.80;50.70;;;;;;5097980;28;19927;-62
2023/06/18 10:36:19;;;;;;;;;;;23.80;50.60;;;;;;5097840;28;19919;-62
2023/06/18 10:38:45;;;;;;;;;;;23.80;50.60;;;;;;5097589;28;19924;-62
2023/06/18 10:41:12;;;;;;;;;;;23.90;50.70;;;;;;5098051;28;19923;-62
2023/06/18 10:43:38;;;;;;;;;;;23.80;50.60;;;;;;5098022;28;19945;-62
2023/06/18 10:46:11;;;;;;;;;;;23.80;50.60;;;;;;5115887;28;19924;-62
2023/06/18 10:48:37;;;;;;;;;;;23.80;50.60;;;;;;5115862;28;20335;-62
2023/06/18 10:51:10;;;;;;;;;;;23.80;50.60;;;;;;5097747;28;19972;-62
2023/06/18 10:53:36;;;;;;;;;;;23.80;50.60;;;;;;5097830;28;19923;-62
2023/06/18 10:56:01;;;;;;;;;;;23.80;50.60;;;;;;5115783;28;19919;-62
2023/06/18 10:58:31;;;;;;;;;;;23.90;50.60;;;;;;5131512;27;20011;-62
2023/06/18 11:00:56;;;;;;;;;;;23.80;50.50;;;;;;5097636;28;19924;-62
2023/06/18 11:03:22;;;;;;;;;;;23.80;50.50;;;;;;5131472;27;20285;-62
2023/06/18 11:05:49;;;;;;;;;;;23.90;50.50;;;;;;5115502;28;19973;-62
2023/06/18 11:08:16;;;;;;;;;;;23.90;50.50;;;;;;5097524;28;19919;-62
2023/06/18 11:10:48;;;;;;;;;;;23.90;50.50;;;;;;5097051;28;20271;-62
2023/06/18 11:13:15;;;;;;;;;;;23.90;50.50;;;;;;5097067;28;19920;-62
2023/06/18 11:16:02;;;;;;;;;;;23.90;50.50;;;;;;5097533;28;19919;-62
2023/06/18 11:18:29;;;;;;;;;;;23.90;50.40;;;;;;5115196;28;20507;-62
2023/06/18 11:20:55;;;;;;;;;;;23.90;50.40;;;;;;5131125;27;20002;-62
2023/06/18 11:23:22;;;;;;;;;;;23.90;50.40;;;;;;5114507;28;19920;-62
2023/06/18 11:25:48;;;;;;;;;;;23.90;50.30;;;;;;5097141;28;19920;-62
2023/06/18 11:28:15;;;;;;;;;;;23.90;50.40;;;;;;5114963;28;19920;-62
2023/06/18 11:30:45;;;;;;;;;;;23.90;50.30;;;;;;5097054;28;19927;-62
2023/06/18 11:33:10;;;;;;;;;;;23.90;50.30;;;;;;5115075;28;20007;-62
2023/06/18 11:35:36;;;;;;;;;;;24.00;51.10;;;;;;5096877;28;20014;-62
2023/06/18 11:38:01;;;;;;;;;;;23.90;50.30;;;;;;5096654;28;19924;-62
2023/06/18 11:40:27;;;;;;;;;;;23.90;50.20;;;;;;5096569;28;20002;-63
2023/06/18 11:42:53;;;;;;;;;;;23.90;50.20;;;;;;5096490;28;19920;-62
2023/06/18 11:45:19;;;;;;;;;;;24.00;50.20;;;;;;5096772;28;19920;-63
2023/06/18 11:47:47;;;;;;;;;;;24.00;50.20;;;;;;5114807;28;20362;-62
2023/06/18 11:50:13;;;;;;;;;;;24.00;50.20;;;;;;5096590;28;19924;-62
2023/06/18 11:52:39;;;;;;;;;;;24.00;50.20;;;;;;5096324;28;19924;-62
2023/06/18 11:55:05;;;;;;;;;;;24.00;50.20;;;;;;5096588;28;19920;-63
2023/06/18 11:57:31;;;;;;;;;;;24.00;50.10;;;;;;5096155;28;20378;-62
2023/06/18 11:59:57;;;;;;;;;;;24.00;50.10;;;;;;5096156;28;19931;-61
2023/06/18 12:02:25;;;;;;;;;;;24.00;50.10;;;;;;5113662;28;19923;-62
2023/06/18 12:04:51;;;;;;;;;;;24.00;50.00;;;;;;5096182;28;19919;-62
2023/06/18 12:07:17;;;;;;;;;;;24.00;50.00;;;;;;5095974;28;19946;-62
2023/06/18 12:09:43;;;;;;;;;;;24.10;50.00;;;;;;5114369;28;20314;-62
2023/06/18 12:12:28;;;;;;;;;;;24.10;50.00;;;;;;5096248;28;19926;-62
2023/06/18 12:15:14;;;;;;;;;;;24.10;50.00;;;;;;5095718;28;20006;-62
2023/06/18 12:17:59;;;;;;;;;;;24.10;50.00;;;;;;5095635;28;20008;-62
2023/06/18 12:20:27;;;;;;;;;;;24.10;50.00;;;;;;5095669;28;19924;-62
2023/06/18 12:22:53;;;;;;;;;;;24.10;49.90;;;;;;5095062;28;19988;-61
2023/06/18 12:25:22;;;;;;;;;;;24.10;49.90;;;;;;5095999;28;19963;-61
2023/06/18 12:27:49;;;;;;;;;;;24.20;49.90;;;;;;5095532;28;19926;-62
2023/06/18 12:30:14;;;;;;;;;;;24.10;49.80;;;;;;5096080;28;19973;-62
2023/06/18 12:32:40;;;;;;;;;;;24.10;49.80;;;;;;5078687;28;19919;-62
2023/06/18 12:35:10;;;;;;;;;;;24.10;49.80;;;;;;5095156;28;19924;-62
2023/06/18 12:37:36;;;;;;;;;;;24.10;49.70;;;;;;5114121;28;19920;-62
2023/06/18 12:40:10;;;;;;;;;;;24.10;49.70;;;;;;5113618;28;20427;-62
2023/06/18 12:42:36;;;;;;;;;;;24.20;49.80;;;;;;5095704;28;19920;-62
2023/06/18 12:45:02;;;;;;;;;;;24.20;49.70;;;;;;5095313;28;19968;-62
2023/06/18 12:47:28;;;;;;;;;;;24.10;49.70;;;;;;5095578;28;19920;-62
2023/06/18 12:49:54;;;;;;;;;;;24.10;49.60;;;;;;5095168;28;19928;-62
2023/06/18 12:52:20;;;;;;;;;;;24.10;49.70;;;;;;5113419;28;20289;-63
2023/06/18 12:54:45;;;;;;;;;;;24.20;49.60;;;;;;5095066;28;19919;-62
2023/06/18 12:57:13;;;;;;;;;;;24.20;49.60;;;;;;5113732;28;19928;-61
2023/06/18 12:59:47;;;;;;;;;;;24.10;49.50;;;;;;5113125;28;20015;-62
2023/06/18 13:02:13;;;;;;;;;;;24.20;49.60;;;;;;5094634;28;19919;-63
2023/06/18 13:04:41;;;;;;;;;;;24.20;49.60;;;;;;5095129;28;19927;-62
2023/06/18 13:07:07;;;;;;;;;;;24.20;49.50;;;;;;5094724;28;20390;-62
2023/06/18 13:09:32;;;;;;;;;;;24.20;49.50;;;;;;5095050;28;19920;-62
2023/06/18 13:11:58;;;;;;;;;;;24.20;49.50;;;;;;5095046;28;19924;-62
2023/06/18 13:14:23;;;;;;;;;;;24.20;49.50;;;;;;5113048;28;20362;-62
2023/06/18 13:16:49;;;;;;;;;;;24.30;49.50;;;;;;5095011;28;20018;-62
2023/06/18 13:19:15;;;;;;;;;;;24.20;49.50;;;;;;5094845;28;19931;-61
2023/06/18 13:21:41;;;;;;;;;;;24.20;49.40;;;;;;5112076;28;19920;-62
2023/06/18 13:24:07;;;;;;;;;;;24.30;49.50;;;;;;5094589;28;20333;-62
2023/06/18 13:26:32;;;;;;;;;;;24.30;49.50;;;;;;5094684;28;19920;-62
2023/06/18 13:28:58;;;;;;;;;;;24.30;49.50;;;;;;5094820;28;19920;-63
2023/06/18 13:31:23;;;;;;;;;;;24.30;49.50;;;;;;5094710;28;20367;-62
2023/06/18 13:33:49;;;;;;;;;;;24.30;49.40;;;;;;5094647;28;19970;-62
2023/06/18 13:36:14;;;;;;;;;;;24.30;49.40;;;;;;5094728;28;20170;-62
2023/06/18 13:38:40;;;;;;;;;;;24.30;49.40;;;;;;5112387;28;19924;-62
2023/06/18 13:41:05;;;;;;;;;;;24.30;49.40;;;;;;5129018;28;19919;-62
2023/06/18 13:43:31;;;;;;;;;;;24.30;49.40;;;;;;5128998;28;20370;-62
2023/06/18 13:45:56;;;;;;;;;;;24.30;49.30;;;;;;5094683;28;19931;-62
2023/06/18 13:48:22;;;;;;;;;;;24.30;49.30;;;;;;5094791;28;19927;-69
2023/06/18 13:50:48;;;;;;;;;;;24.40;49.40;;;;;;5094383;28;20294;-62
2023/06/18 13:53:13;;;;;;;;;;;24.30;49.30;;;;;;5094366;28;19920;-62
2023/06/18 13:55:39;;;;;;;;;;;24.30;49.30;;;;;;5128731;28;19920;-62
2023/06/18 13:58:04;;;;;;;;;;;24.30;49.30;;;;;;5112515;28;19919;-62
2023/06/18 14:00:30;;;;;;;;;;;24.40;49.30;;;;;;5112536;28;19927;-62
2023/06/18 14:02:56;;;;;;;;;;;24.40;49.30;;;;;;5094622;28;19924;-62
2023/06/18 14:05:21;;;;;;;;;;;24.40;49.30;;;;;;5094542;28;19957;-62
2023/06/18 14:07:47;;;;;;;;;;;24.40;49.30;;;;;;5128345;28;20410;-62
2023/06/18 14:10:12;;;;;;;;;;;24.40;49.30;;;;;;5094536;28;19926;-62
2023/06/18 14:12:38;;;;;;;;;;;24.40;49.30;;;;;;5094132;28;19920;-62
2023/06/18 14:15:04;;;;;;;;;;;24.40;49.30;;;;;;5112547;28;19927;-62
2023/06/18 14:17:30;;;;;;;;;;;24.50;49.30;;;;;;5094162;28;19919;-62
2023/06/18 14:19:56;;;;;;;;;;;24.40;49.20;;;;;;5094217;28;19938;-62